Map

Track Data

SID SEASON NUMBER BASIN SUBBASIN NAME ISO_TIME NATURE LAT LON WMO_WIND WMO_PRES WMO_AGENCY TRACK_TYPE DIST2LAND LANDFALL IFLAG USA_AGENCY USA_ATCF_ID USA_LAT USA_LON USA_RECORD USA_STATUS USA_WIND USA_PRES USA_SSHS USA_R34_NE USA_R34_SE USA_R34_SW USA_R34_NW USA_R50_NE USA_R50_SE USA_R50_SW USA_R50_NW USA_R64_NE USA_R64_SE USA_R64_SW USA_R64_NW USA_POCI USA_ROCI USA_RMW USA_EYE TOKYO_LAT TOKYO_LON TOKYO_GRADE TOKYO_WIND TOKYO_PRES TOKYO_R50_DIR TOKYO_R50_LONG TOKYO_R50_SHORT TOKYO_R30_DIR TOKYO_R30_LONG TOKYO_R30_SHORT TOKYO_LAND CMA_LAT CMA_LON CMA_CAT CMA_WIND CMA_PRES HKO_LAT HKO_LON HKO_CAT HKO_WIND HKO_PRES NEWDELHI_LAT NEWDELHI_LON NEWDELHI_GRADE NEWDELHI_WIND NEWDELHI_PRES NEWDELHI_CI NEWDELHI_DP NEWDELHI_POCI REUNION_LAT REUNION_LON REUNION_TYPE REUNION_WIND REUNION_PRES REUNION_TNUM REUNION_CI REUNION_RMW REUNION_R34_NE REUNION_R34_SE REUNION_R34_SW REUNION_R34_NW REUNION_R50_NE REUNION_R50_SE REUNION_R50_SW REUNION_R50_NW REUNION_R64_NE REUNION_R64_SE REUNION_R64_SW REUNION_R64_NW BOM_LAT BOM_LON BOM_TYPE BOM_WIND BOM_PRES BOM_TNUM BOM_CI BOM_RMW BOM_R34_NE BOM_R34_SE BOM_R34_SW BOM_R34_NW BOM_R50_NE BOM_R50_SE BOM_R50_SW BOM_R50_NW BOM_R64_NE BOM_R64_SE BOM_R64_SW BOM_R64_NW BOM_ROCI BOM_POCI BOM_EYE BOM_POS_METHOD BOM_PRES_METHOD NADI_LAT NADI_LON NADI_CAT NADI_WIND NADI_PRES WELLINGTON_LAT WELLINGTON_LON WELLINGTON_WIND WELLINGTON_PRES DS824_LAT DS824_LON DS824_STAGE DS824_WIND DS824_PRES TD9636_LAT TD9636_LON TD9636_STAGE TD9636_WIND TD9636_PRES TD9635_LAT TD9635_LON TD9635_WIND TD9635_PRES TD9635_ROCI NEUMANN_LAT NEUMANN_LON NEUMANN_CLASS NEUMANN_WIND NEUMANN_PRES MLC_LAT MLC_LON MLC_CLASS MLC_WIND MLC_PRES USA_GUST BOM_GUST BOM_GUST_PER REUNION_GUST REUNION_GUST_PER USA_SEAHGT USA_SEARAD_NE USA_SEARAD_SE USA_SEARAD_SW USA_SEARAD_NW STORM_SPEED STORM_DIR
1917267N10129 1917 43 WP MM NOT_NAMED 1917-09-24 09:00:00 NR 10.0000 128.800 main 299 292 __________O___ -1 10.0000 128.800 7 14 338
1917267N10129 1917 43 WP MM NOT_NAMED 1917-09-24 12:00:00 NR 10.6252 128.539 main 296 273 __________P___ -1 10.6252 128.539 7 13 337
1917267N10129 1917 43 WP MM NOT_NAMED 1917-09-24 15:00:00 NR 11.2203 128.281 main 273 252 __________P___ -1 11.2203 128.281 7 12 336
1917267N10129 1917 43 WP MM NOT_NAMED 1917-09-24 18:00:00 NR 11.7552 128.033 main 256 250 __________P___ -1 11.7552 128.033 7 11 334
1917267N10129 1917 43 WP MM NOT_NAMED 1917-09-24 21:00:00 NR 12.2000 127.800 main 250 230 __________O___ -1 12.2000 127.800 7 9 331
1917267N10129 1917 43 WP MM NOT_NAMED 1917-09-25 00:00:00 NR 12.5361 127.587 main 230 213 __________P___ -1 12.5361 127.587 7 7 326
1917267N10129 1917 43 WP MM NOT_NAMED 1917-09-25 03:00:00 NR 12.7899 127.397 main 217 205 __________P___ -1 12.7899 127.397 7 6 323
1917267N10129 1917 43 WP MM NOT_NAMED 1917-09-25 06:00:00 NR 12.9987 127.234 main 205 200 __________P___ -1 12.9987 127.234 7 5 325
1917267N10129 1917 43 WP MM NOT_NAMED 1917-09-25 09:00:00 NR 13.2000 127.100 main 206 204 __________O___ -1 13.2000 127.100 7 5 332
1917267N10129 1917 43 WP MM NOT_NAMED 1917-09-25 12:00:00 NR 13.4256 127.000 main 211 211 __________P___ -1 13.4256 127.000 7 5 340
1917267N10129 1917 43 WP MM NOT_NAMED 1917-09-25 15:00:00 NR 13.6549 126.927 main 226 226 __________P___ -1 13.6549 126.927 7 5 345
1917267N10129 1917 43 WP MM NOT_NAMED 1917-09-25 18:00:00 NR 13.9068 126.866 main 241 241 __________P___ -1 13.9068 126.866 7 6 347
1917267N10129 1917 43 WP MM NOT_NAMED 1917-09-25 21:00:00 NR 14.2000 126.800 main 257 254 __________O___ -1 14.2000 126.800 7 7 345
1917267N10129 1917 43 WP MM NOT_NAMED 1917-09-26 00:00:00 NR 14.5407 126.695 main 256 253 __________P___ -1 14.5407 126.695 7 8 344
1917267N10129 1917 43 WP MM NOT_NAMED 1917-09-26 03:00:00 NR 14.9251 126.585 main 262 262 __________P___ -1 14.9251 126.585 7 8 346
1917267N10129 1917 43 WP MM NOT_NAMED 1917-09-26 06:00:00 NR 15.3470 126.483 main 275 275 __________P___ -1 15.3470 126.483 7 9 349
1917267N10129 1917 43 WP MM NOT_NAMED 1917-09-26 09:00:00 NR 15.8000 126.400 main 302 302 __________O___ -1 15.8000 126.400 7 9 350
1917267N10129 1917 43 WP MM NOT_NAMED 1917-09-26 12:00:00 NR 16.2509 126.325 main 335 335 __________P___ -1 16.2509 126.325 7 9 353
1917267N10129 1917 43 WP MM NOT_NAMED 1917-09-26 15:00:00 NR 16.7325 126.276 main 370 370 __________P___ -1 16.7325 126.276 7 10 357
1917267N10129 1917 43 WP MM NOT_NAMED 1917-09-26 18:00:00 NR 17.2478 126.263 main 404 404 __________P___ -1 17.2478 126.263 7 11 0
1917267N10129 1917 43 WP MM NOT_NAMED 1917-09-26 21:00:00 NR 17.8000 126.300 main 413 413 __________O___ -1 17.8000 126.300 7 12 5
1917267N10129 1917 43 WP MM NOT_NAMED 1917-09-27 00:00:00 NR 18.4215 126.383 main 432 432 __________P___ -1 18.4215 126.383 7 13 9
1917267N10129 1917 43 WP MM NOT_NAMED 1917-09-27 03:00:00 NR 19.0724 126.517 main 449 449 __________P___ -1 19.0724 126.517 7 13 13
1917267N10129 1917 43 WP MM NOT_NAMED 1917-09-27 06:00:00 NR 19.7121 126.693 main 484 484 __________P___ -1 19.7121 126.693 7 13 16
1917267N10129 1917 43 WP MM NOT_NAMED 1917-09-27 09:00:00 NR 20.3000 126.900 main 527 527 __________O___ -1 20.3000 126.900 7 12 20
1917267N10129 1917 43 WP MM NOT_NAMED 1917-09-27 12:00:00 NR 20.7987 127.117 main 569 569 __________P___ -1 20.7987 127.117 7 10 25
1917267N10129 1917 43 WP MM NOT_NAMED 1917-09-27 15:00:00 NR 21.2399 127.363 main 618 618 __________P___ -1 21.2399 127.363 7 10 30
1917267N10129 1917 43 WP MM NOT_NAMED 1917-09-27 18:00:00 NR 21.6362 127.627 main 659 656 __________P___ -1 21.6362 127.627 7 9 33
1917267N10129 1917 43 WP MM NOT_NAMED 1917-09-27 21:00:00 NR 22.0000 127.900 main 673 668 __________O___ -1 22.0000 127.900 7 9 35
1917267N10129 1917 43 WP MM NOT_NAMED 1917-09-28 00:00:00 NR 22.3496 128.172 main 687 683 __________P___ -1 22.3496 128.172 7 8 37
1917267N10129 1917 43 WP MM NOT_NAMED 1917-09-28 03:00:00 NR 22.6724 128.451 main 701 698 __________P___ -1 22.6724 128.451 7 8 39
1917267N10129 1917 43 WP MM NOT_NAMED 1917-09-28 06:00:00 NR 22.9840 128.729 main 711 711 __________P___ -1 22.9840 128.729 7 8 39
1917267N10129 1917 43 WP MM NOT_NAMED 1917-09-28 09:00:00 NR 23.3000 129.000 main 733 731 __________O___ -1 23.3000 129.000 7 8 36
1917267N10129 1917 43 WP MM NOT_NAMED 1917-09-28 12:00:00 NR 23.6096 129.219 main 745 745 __________P___ -1 23.6096 129.219 7 8 32
1917267N10129 1917 43 WP MM NOT_NAMED 1917-09-28 15:00:00 NR 23.9314 129.436 main 758 754 __________P___ -1 23.9314 129.436 7 8 32
1917267N10129 1917 43 WP MM NOT_NAMED 1917-09-28 18:00:00 NR 24.2875 129.685 main 754 706 __________P___ -1 24.2875 129.685 7 9 34
1917267N10129 1917 43 WP MM NOT_NAMED 1917-09-28 21:00:00 NR 24.7000 130.000 main 706 648 __________O___ -1 24.7000 130.000 7 11 37
1917267N10129 1917 43 WP MM NOT_NAMED 1917-09-29 00:00:00 NR 25.1974 130.443 main 648 592 __________P___ -1 25.1974 130.443 7 14 39
1917267N10129 1917 43 WP MM NOT_NAMED 1917-09-29 03:00:00 NR 25.7488 130.953 main 592 529 __________P___ -1 25.7488 130.953 7 15 40
1917267N10129 1917 43 WP MM NOT_NAMED 1917-09-29 06:00:00 NR 26.3256 131.487 main 530 474 __________P___ -1 26.3256 131.487 7 15 39
1917267N10129 1917 43 WP MM NOT_NAMED 1917-09-29 09:00:00 NR 26.9000 132.000 main 474 441 __________O___ -1 26.9000 132.000 4 13 37
1917267N10129 1917 43 WP MM NOT_NAMED 1917-09-29 12:00:00 NR 27.3482 132.353 main 444 406 __________P___ -1 27.3482 132.353 4 11 34
1917267N10129 1917 43 WP MM NOT_NAMED 1917-09-29 15:00:00 NR 27.8031 132.687 main 406 374 __________P___ -1 27.8031 132.687 4 12 33
1917267N10129 1917 43 WP MM NOT_NAMED 1917-09-29 18:00:00 NR 28.3316 133.078 main 380 341 __________P___ -1 28.3316 133.078 4 14 34
1917267N10129 1917 43 WP MM NOT_NAMED 1917-09-29 21:00:00 NR 29.0000 133.600 main 341 326 __________O___ -1 29.0000 133.600 4 19 36
1917267N10129 1917 43 WP MM NOT_NAMED 1917-09-30 00:00:00 NR 29.8881 134.373 main 331 273 __________P___ -1 29.8881 134.373 4 24 38
1917267N10129 1917 43 WP MM NOT_NAMED 1917-09-30 03:00:00 NR 30.9116 135.294 main 276 171 __________P___ -1 30.9116 135.294 4 27 38
1917267N10129 1917 43 WP MM NOT_NAMED 1917-09-30 06:00:00 NR 32.0037 136.294 main 162 128 __________P___ -1 32.0037 136.294 4 28 38
1917267N10129 1917 43 WP MM NOT_NAMED 1917-09-30 09:00:00 NR 33.1000 137.300 main 132 66 __________O___ -1 33.1000 137.300 4 26 39
1917267N10129 1917 43 WP MM NOT_NAMED 1917-09-30 12:00:00 NR 34.0309 138.274 main 67 0 __________P___ -1 34.0309 138.274 4 25 41
1917267N10129 1917 43 WP MM NOT_NAMED 1917-09-30 15:00:00 NR 34.9670 139.228 main 9 0 __________P___ -1 34.9670 139.228 4 25 38
1917267N10129 1917 43 WP MM NOT_NAMED 1917-09-30 18:00:00 NR 35.9692 140.118 main 0 0 __________P___ -1 35.9692 140.118 4 25 32
1917267N10129 1917 43 WP MM NOT_NAMED 1917-09-30 21:00:00 NR 37.1000 140.900 main 0 0 __________O___ -1 37.1000 140.900 4 27 24
1917267N10129 1917 43 WP MM NOT_NAMED 1917-10-01 00:00:00 NR 38.4667 141.526 main 8 0 __________P___ -1 38.4667 141.526 4 30 17
1917267N10129 1917 43 WP MM NOT_NAMED 1917-10-01 03:00:00 NR 39.9625 142.047 main 8 8 __________P___ -1 39.9625 142.047 4 31 14
1917267N10129 1917 43 WP MM NOT_NAMED 1917-10-01 06:00:00 NR 41.5023 142.518 main 73 0 __________P___ -1 41.5023 142.518 4 31 13
1917267N10129 1917 43 WP MM NOT_NAMED 1917-10-01 09:00:00 NR 43.0000 143.000 main 0 0 __________O___ -1 43.0000 143.000 7 30 15
1917267N10129 1917 43 WP MM NOT_NAMED 1917-10-01 12:00:00 NR 44.3890 143.541 main 11 11 __________P___ -1 44.3890 143.541 7 28 17
1917267N10129 1917 43 WP MM NOT_NAMED 1917-10-01 15:00:00 NR 45.6813 144.145 main 63 63 __________P___ -1 45.6813 144.145 7 27 19
1917267N10129 1917 43 WP MM NOT_NAMED 1917-10-01 18:00:00 NR 46.9082 144.801 main 101 84 __________P___ -1 46.9082 144.801 7 26 21
1917267N10129 1917 43 WP MM NOT_NAMED 1917-10-01 21:00:00 NR 48.1000 145.500 main 80 __________O___ -1 48.1000 145.500 7 26 21

Digital Typhoon Data and Search

About IBTrACS Database

This database is a web-friendly format of International Best Track Archive for Climate Stewardship (IBTrACS), a global best track data archive curated by NOAA dating back to 1842.

Updated: 2021-12-01